createdAt,value
2023-02-09T00:02:54.305Z,65.21
2023-02-09T00:07:56.356Z,65.33
2023-02-09T00:13:16.646Z,65.18
2023-02-09T00:18:18.520Z,65.23
2023-02-09T00:23:20.187Z,65.68
2023-02-09T00:28:21.976Z,65.51
2023-02-09T00:33:26.708Z,65.51
2023-02-09T00:38:28.468Z,65.82
2023-02-09T00:43:30.153Z,65.75
2023-02-09T00:48:32.161Z,65.66
2023-02-09T00:53:33.897Z,65.93
2023-02-09T00:58:35.539Z,65.75
2023-02-09T01:03:37.398Z,66.59
2023-02-09T01:08:39.000Z,66.55
2023-02-09T01:13:41.295Z,66.17
2023-02-09T01:18:43.700Z,66.19
2023-02-09T01:23:47.122Z,66.13
2023-02-09T01:28:53.472Z,66.64
2023-02-09T01:33:57.851Z,66.45
2023-02-09T01:39:03.702Z,66.19
2023-02-09T01:44:11.493Z,67.08
2023-02-09T01:49:21.145Z,66.38
2023-02-09T01:54:27.117Z,66.66
2023-02-09T01:59:29.795Z,66.29
2023-02-09T02:04:32.401Z,66.74
2023-02-09T02:09:34.304Z,66.62
2023-02-09T02:14:37.835Z,67.40
2023-02-09T02:19:58.093Z,66.82
2023-02-09T02:25:37.943Z,66.76
2023-02-09T02:31:17.515Z,67.45
2023-02-09T02:36:42.639Z,67.56
2023-02-09T02:42:17.050Z,67.03
2023-02-09T02:47:20.868Z,67.01
2023-02-09T02:52:22.830Z,67.09
2023-02-09T02:57:31.197Z,67.19
2023-02-09T03:02:48.148Z,67.28
2023-02-09T03:07:50.585Z,67.66
2023-02-09T03:13:07.877Z,67.83
2023-02-09T03:18:32.864Z,66.88
2023-02-09T03:24:11.122Z,67.33
2023-02-09T03:29:15.696Z,67.42
2023-02-09T03:34:18.317Z,67.54
2023-02-09T03:39:20.046Z,67.08
2023-02-09T03:44:27.748Z,68.11
2023-02-09T03:49:35.013Z,67.53
2023-02-09T03:54:37.185Z,68.19
2023-02-09T03:59:39.695Z,68.24
2023-02-09T04:04:41.338Z,67.51
2023-02-09T04:09:43.304Z,67.61
2023-02-09T04:14:45.056Z,68.35
2023-02-09T04:19:46.806Z,68.23
2023-02-09T04:24:48.465Z,67.75
2023-02-09T04:29:50.228Z,67.40
2023-02-09T04:34:51.834Z,67.41
2023-02-09T04:39:53.694Z,67.51
2023-02-09T04:44:55.382Z,67.98
2023-02-09T04:49:57.135Z,67.82
2023-02-09T04:54:58.768Z,67.62
2023-02-09T05:00:00.429Z,67.95
2023-02-09T05:05:02.261Z,67.86
2023-02-09T05:10:04.172Z,67.71
2023-02-09T05:15:06.062Z,67.54
2023-02-09T05:20:08.763Z,67.66
2023-02-09T05:25:10.448Z,68.05
2023-02-09T05:30:12.464Z,67.97
2023-02-09T05:35:14.330Z,68.24
2023-02-09T05:40:16.151Z,67.85
2023-02-09T05:45:18.002Z,68.17
2023-02-09T05:50:19.848Z,67.91
2023-02-09T05:55:21.496Z,68.06
2023-02-09T06:00:24.979Z,67.84
2023-02-09T06:05:27.176Z,67.99
2023-02-09T06:10:29.120Z,67.88
2023-02-09T06:15:30.918Z,68.01
2023-02-09T06:20:32.685Z,68.25
2023-02-09T06:25:34.414Z,69.42
2023-02-09T06:30:36.198Z,69.72
2023-02-09T06:35:37.816Z,68.71
2023-02-09T06:40:39.576Z,67.67
2023-02-09T06:45:41.385Z,67.49
2023-02-09T06:50:43.166Z,66.57
2023-02-09T06:55:44.998Z,66.40
2023-02-09T07:00:46.947Z,65.51
2023-02-09T07:05:48.888Z,65.31
2023-02-09T07:10:50.572Z,65.13
2023-02-09T07:15:57.108Z,64.67
2023-02-09T07:21:01.735Z,64.05
2023-02-09T07:26:05.955Z,65.13
2023-02-09T07:31:10.307Z,65.69
2023-02-09T07:36:14.032Z,66.09
2023-02-09T07:41:19.398Z,66.25
2023-02-09T07:46:22.755Z,66.47
2023-02-09T07:51:28.715Z,67.04
2023-02-09T07:56:30.504Z,67.51
2023-02-09T08:01:33.754Z,67.43
2023-02-09T08:06:43.201Z,67.78
2023-02-09T08:11:53.169Z,68.47
2023-02-09T08:17:20.080Z,68.36
2023-02-09T08:22:24.838Z,68.39
2023-02-09T08:27:26.905Z,68.72
2023-02-09T08:32:28.770Z,69.16
2023-02-09T08:37:31.269Z,69.14
2023-02-09T08:42:33.178Z,69.53
2023-02-09T08:47:35.001Z,69.25
2023-02-09T08:52:36.672Z,69.43
2023-02-09T08:57:44.015Z,70.15
2023-02-09T09:02:46.349Z,70.05
2023-02-09T09:07:48.277Z,70.56
2023-02-09T09:12:51.822Z,70.51
2023-02-09T09:17:53.568Z,69.94
2023-02-09T09:22:59.326Z,70.23
2023-02-09T09:28:01.503Z,70.80
2023-02-09T09:33:04.221Z,70.76
2023-02-09T09:38:05.827Z,71.76
2023-02-09T09:43:19.174Z,71.89
2023-02-09T09:48:26.831Z,71.55
2023-02-09T09:53:36.706Z,71.63
2023-02-09T09:58:44.183Z,71.60
2023-02-09T10:03:45.848Z,71.76
2023-02-09T10:09:03.181Z,71.57
2023-02-09T10:14:04.833Z,71.57
2023-02-09T10:19:17.232Z,71.13
2023-02-09T10:24:30.712Z,71.04
2023-02-09T10:29:32.427Z,71.11
2023-02-09T10:34:46.461Z,70.96
2023-02-09T10:40:00.975Z,70.77
2023-02-09T10:45:23.622Z,70.57
2023-02-09T10:50:25.368Z,70.74
2023-02-09T10:55:40.386Z,71.03
2023-02-09T11:00:41.950Z,70.51
2023-02-09T11:05:45.711Z,70.62
2023-02-09T11:11:08.117Z,70.31
2023-02-09T11:16:28.438Z,70.04
2023-02-09T11:21:40.905Z,69.84
2023-02-09T11:26:50.796Z,69.93
2023-02-09T11:32:20.634Z,70.04
2023-02-09T11:37:28.277Z,69.86
2023-02-09T11:42:44.607Z,68.96
2023-02-09T11:48:13.832Z,69.03
2023-02-09T11:53:33.642Z,68.38
2023-02-09T11:58:44.490Z,68.08
2023-02-09T12:04:18.609Z,67.91
2023-02-09T12:09:36.626Z,67.81
2023-02-09T12:14:49.017Z,67.07
2023-02-09T12:20:01.401Z,66.94
2023-02-09T12:25:12.183Z,67.04
2023-02-09T12:30:44.967Z,66.88
2023-02-09T12:36:23.983Z,66.58
2023-02-09T12:41:29.390Z,66.10
2023-02-09T12:46:31.196Z,66.21
2023-02-09T12:51:42.043Z,65.78
2023-02-09T12:56:43.762Z,65.40
2023-02-09T13:02:04.161Z,65.17
2023-02-09T13:07:15.041Z,64.90
2023-02-09T13:12:22.249Z,65.09
2023-02-09T13:17:35.074Z,64.65
2023-02-09T13:23:32.040Z,64.44
2023-02-09T13:28:33.690Z,63.63
2023-02-09T13:33:47.453Z,64.07
2023-02-09T13:38:49.374Z,64.07
2023-02-09T13:43:51.033Z,63.83
2023-02-09T13:48:52.933Z,64.24
2023-02-09T13:54:00.963Z,63.82
2023-02-09T13:59:02.713Z,63.56
2023-02-09T14:04:11.923Z,63.68
2023-02-09T14:09:20.778Z,63.60
2023-02-09T14:14:28.382Z,63.69
2023-02-09T14:19:33.434Z,63.73
2023-02-09T14:24:43.835Z,63.47
2023-02-09T14:29:48.705Z,63.81
2023-02-09T14:34:51.344Z,63.66
2023-02-09T14:40:06.275Z,63.62
2023-02-09T14:45:14.036Z,63.55
2023-02-09T14:50:18.856Z,63.46
2023-02-09T14:55:25.070Z,63.52
2023-02-09T15:00:28.994Z,63.92
2023-02-09T15:05:30.861Z,64.57
2023-02-09T15:10:38.329Z,64.74
2023-02-09T15:15:40.381Z,64.91
2023-02-09T15:20:41.987Z,65.37
2023-02-09T15:25:44.964Z,65.42
2023-02-09T15:30:47.190Z,65.62
2023-02-09T15:35:50.049Z,65.63
2023-02-09T15:41:10.607Z,65.79
2023-02-09T15:46:13.422Z,66.60
2023-02-09T15:51:16.195Z,67.25
2023-02-09T15:56:18.779Z,68.01
2023-02-09T16:01:20.900Z,68.46
2023-02-09T16:06:26.710Z,68.58
2023-02-09T16:11:35.206Z,68.50
2023-02-09T16:16:36.889Z,69.01
2023-02-09T16:21:40.602Z,68.97
2023-02-09T16:26:42.259Z,69.25
2023-02-09T16:31:44.297Z,68.83
2023-02-09T16:36:48.513Z,68.84
2023-02-09T16:41:50.754Z,68.93
2023-02-09T16:46:56.362Z,68.65
2023-02-09T16:52:02.444Z,68.73
2023-02-09T16:57:04.452Z,68.14
2023-02-09T17:02:40.692Z,68.62
2023-02-09T17:07:53.883Z,69.10
2023-02-09T17:12:57.758Z,69.20
2023-02-09T17:18:04.040Z,69.19
2023-02-09T17:23:05.766Z,69.03
2023-02-09T17:28:07.480Z,69.00
2023-02-09T17:33:16.047Z,69.20
2023-02-09T17:38:21.041Z,68.86
2023-02-09T17:43:23.836Z,68.90
2023-02-09T17:48:25.909Z,69.28
2023-02-09T17:53:32.214Z,68.94
2023-02-09T17:58:34.105Z,69.28
2023-02-09T18:03:35.711Z,69.34
2023-02-09T18:08:37.349Z,69.42
2023-02-09T18:13:39.589Z,69.29
2023-02-09T18:18:42.976Z,69.40
2023-02-09T18:23:44.906Z,69.37
2023-02-09T18:28:46.565Z,69.69
2023-02-09T18:33:48.542Z,69.37
2023-02-09T18:38:52.091Z,69.67
2023-02-09T18:43:54.501Z,69.58
2023-02-09T18:48:56.477Z,69.46
2023-02-09T18:53:58.893Z,69.57
2023-02-09T18:59:00.623Z,69.79
2023-02-09T19:04:02.646Z,69.59
2023-02-09T19:09:04.586Z,69.57
2023-02-09T19:14:24.547Z,69.94
2023-02-09T19:19:26.362Z,69.84
2023-02-09T19:24:28.252Z,69.73
2023-02-09T19:29:30.084Z,69.52
2023-02-09T19:34:35.121Z,69.62
2023-02-09T19:39:38.658Z,69.79
2023-02-09T19:44:40.306Z,69.78
2023-02-09T19:49:42.002Z,70.09
2023-02-09T19:54:43.673Z,70.04
2023-02-09T19:59:45.320Z,70.18
2023-02-09T20:04:47.094Z,69.93
2023-02-09T20:09:50.331Z,70.12
2023-02-09T20:14:53.967Z,70.38
2023-02-09T20:19:55.824Z,70.21
2023-02-09T20:24:57.654Z,70.11
2023-02-09T20:30:01.371Z,69.96
2023-02-09T20:35:04.923Z,70.40
2023-02-09T20:40:11.034Z,70.13
2023-02-09T20:45:35.826Z,70.51
2023-02-09T20:50:37.574Z,70.79
2023-02-09T20:55:39.336Z,70.69
2023-02-09T21:00:42.413Z,70.81
2023-02-09T21:05:44.187Z,70.70
2023-02-09T21:10:46.010Z,71.23
2023-02-09T21:15:48.696Z,70.96
2023-02-09T21:20:51.593Z,71.05
2023-02-09T21:26:04.725Z,71.07
2023-02-09T21:31:11.382Z,70.99
2023-02-09T21:36:13.751Z,71.11
2023-02-09T21:41:40.755Z,71.07
2023-02-09T21:46:43.765Z,70.94
2023-02-09T21:51:45.570Z,71.35
2023-02-09T21:56:47.277Z,71.70
2023-02-09T22:01:48.983Z,71.58
2023-02-09T22:06:50.726Z,71.42
2023-02-09T22:11:52.389Z,71.29
2023-02-09T22:16:54.658Z,71.65
2023-02-09T22:21:57.919Z,71.58
2023-02-09T22:26:59.881Z,71.21
2023-02-09T22:32:01.739Z,71.42
2023-02-09T22:37:04.228Z,70.86
2023-02-09T22:42:05.982Z,70.90
2023-02-09T22:47:07.891Z,71.47
2023-02-09T22:52:09.604Z,71.06
2023-02-09T22:57:11.473Z,71.26
2023-02-09T23:02:13.226Z,71.35
2023-02-09T23:07:14.891Z,72.00
2023-02-09T23:12:16.511Z,71.67
2023-02-09T23:17:18.160Z,70.83
2023-02-09T23:22:19.959Z,71.19
2023-02-09T23:27:22.091Z,71.65
2023-02-09T23:32:23.699Z,72.42
2023-02-09T23:37:37.325Z,72.02
2023-02-09T23:42:39.605Z,71.39
2023-02-09T23:47:41.325Z,71.41
2023-02-09T23:52:43.029Z,71.62
2023-02-09T23:57:44.890Z,71.59
